Terminal Aerodrome Forecast
Issued by NWS

Current Version | Previous Version | Text Only | Print | Product List | Glossary On
Versions: 1 2 3 4 5 6 7 8 9 10 11 12 13 14 15
861
FTUS46 KPDT 112356 CCA
TAFYKM
TAF COR
KYKM 112356Z 1200/1224 VRB04KT P6SM -SHRA OVC090
     FM120200 VRB04KT P6SM VCSH OVC070
     FM121100 26004KT 4SM BR SCT005 OVC015
     FM121600 VRB03KT P6SM -SHRA SCT015 BKN070
     FM122100 25006KT P6SM BKN100=

USA.gov is the U.S. government's official web portal to all federal, state and local government web resources and services.